Time;durP1;ratioP1;P1;durP2;ratioP2;P2;SDS_P1;SDS_P2;PMS_P1;PMS_P2;Temp;Humidity;BMP_temperature;BMP_pressure;BME280_temperature;BME280_humidity;BME280_pressure;Samples;Min_cycle;Max_cycle;Signal;HPM_P1;HPM_P2
2022/12/09 00:01:38;;;;;;;;;;;;;;;18.74;44.64;100285.84;5131807;28;19923;-44
2022/12/09 00:04:03;;;;;;;;;;;;;;;18.73;44.63;100290.50;5113715;27;20312;-44
2022/12/09 00:06:30;;;;;;;;;;;;;;;18.74;44.61;100297.69;5118526;28;20066;-43
2022/12/09 00:08:55;;;;;;;;;;;;;;;18.74;44.89;100288.59;5113700;27;19927;-44
2022/12/09 00:11:21;;;;;;;;;;;;;;;18.74;44.64;100289.41;5113879;28;19931;-44
2022/12/09 00:13:47;;;;;;;;;;;;;;;18.73;44.65;100281.41;5119488;27;19976;-47
2022/12/09 00:16:13;;;;;;;;;;;;;;;18.73;44.49;100279.47;5120063;28;20393;-46
2022/12/09 00:18:39;;;;;;;;;;;;;;;18.72;44.38;100279.78;5112869;28;19949;-45
2022/12/09 00:21:13;;;;;;;;;;;;;;;18.72;44.51;100279.78;5113014;28;20096;-45
2022/12/09 00:23:38;;;;;;;;;;;;;;;18.72;44.89;100279.78;5130225;27;19970;-44
2022/12/09 00:26:04;;;;;;;;;;;;;;;18.72;44.59;100283.34;5116876;27;20269;-44
2022/12/09 00:28:29;;;;;;;;;;;;;;;18.73;44.56;100282.22;5132201;28;20410;-43
2022/12/09 00:30:59;;;;;;;;;;;;;;;18.73;44.86;100289.69;5131451;28;19923;-44
2022/12/09 00:33:24;;;;;;;;;;;;;;;18.72;44.56;100282.53;5103604;28;20419;-44
2022/12/09 00:35:50;;;;;;;;;;;;;;;18.73;44.71;100289.69;5139444;27;19930;-45
2022/12/09 00:38:16;;;;;;;;;;;;;;;18.71;44.58;100281.72;5114913;28;19946;-46
2022/12/09 00:40:41;;;;;;;;;;;;;;;18.72;44.79;100288.88;5131722;28;19930;-45
2022/12/09 00:43:07;;;;;;;;;;;;;;;18.73;44.72;100281.41;5124396;28;19951;-43
2022/12/09 00:45:32;;;;;;;;;;;;;;;18.71;44.86;100287.22;5119900;27;19935;-46
2022/12/09 00:47:58;;;;;;;;;;;;;;;18.73;44.54;100289.69;5111224;28;20295;-45
2022/12/09 00:50:24;;;;;;;;;;;;;;;18.73;44.89;100284.16;5126146;28;19927;-46
2022/12/09 00:52:49;;;;;;;;;;;;;;;18.72;44.66;100286.09;5130887;28;20416;-45
2022/12/09 00:55:15;;;;;;;;;;;;;;;18.71;44.67;100284.47;5144558;27;19923;-45
2022/12/09 00:57:41;;;;;;;;;;;;;;;18.72;44.50;100279.78;5112414;27;19928;-44
2022/12/09 01:00:07;;;;;;;;;;;;;;;18.71;44.64;100275.38;5121895;28;19923;-45
2022/12/09 01:02:33;;;;;;;;;;;;;;;18.69;44.74;100272.91;5111936;28;19931;-44
2022/12/09 01:04:59;;;;;;;;;;;;;;;18.71;44.52;100276.19;5110425;27;20004;-45
2022/12/09 01:07:25;;;;;;;;;;;;;;;18.70;44.52;100280.09;5129363;28;19927;-44
2022/12/09 01:09:51;;;;;;;;;;;;;;;18.71;44.87;100276.19;5130980;28;19924;-45
2022/12/09 01:12:16;;;;;;;;;;;;;;;18.70;44.79;100280.09;5130498;28;19930;-46
2022/12/09 01:14:42;;;;;;;;;;;;;;;18.70;44.58;100277.31;5138415;27;20372;-45
2022/12/09 01:17:08;;;;;;;;;;;;;;;18.70;44.87;100280.09;5136552;27;20430;-43
2022/12/09 01:19:34;;;;;;;;;;;;;;;18.71;44.68;100289.19;5131554;28;20380;-43
2022/12/09 01:21:59;;;;;;;;;;;;;;;18.70;44.54;100287.53;5130379;28;19959;-44
2022/12/09 01:24:25;;;;;;;;;;;;;;;18.69;44.54;100283.94;5122090;27;19928;-44
2022/12/09 01:26:51;;;;;;;;;;;;;;;18.70;44.52;100295.81;5111808;28;20283;-44
2022/12/09 01:29:17;;;;;;;;;;;;;;;18.70;44.77;100296.63;5119125;28;19923;-46
2022/12/09 01:31:42;;;;;;;;;;;;;;;18.70;44.69;100296.63;5128587;28;19942;-45
2022/12/09 01:34:08;;;;;;;;;;;;;;;18.70;44.69;100296.63;5128406;27;20375;-46
2022/12/09 01:36:34;;;;;;;;;;;;;;;18.69;44.52;100291.34;5131097;28;19924;-44
2022/12/09 01:39:00;;;;;;;;;;;;;;;18.70;44.58;100296.63;5125655;28;19935;-44
2022/12/09 01:41:26;;;;;;;;;;;;;;;18.69;44.54;100302.38;5129617;28;19976;-45
2022/12/09 01:44:10;;;;;;;;;;;;;;;18.70;44.85;100298.56;5123615;27;19931;-45
2022/12/09 01:46:35;;;;;;;;;;;;;;;18.68;44.86;100287.78;5112442;28;19931;-45
2022/12/09 01:49:01;;;;;;;;;;;;;;;18.69;44.67;100296.88;5130703;28;19923;-44
2022/12/09 01:51:26;;;;;;;;;;;;;;;18.68;44.78;100296.06;5129891;28;19924;-44
2022/12/09 01:53:53;;;;;;;;;;;;;;;18.68;44.87;100298.81;5127572;27;19973;-44
2022/12/09 01:56:20;;;;;;;;;;;;;;;18.68;44.77;100296.06;5122804;28;19923;-44
2022/12/09 01:58:45;;;;;;;;;;;;;;;18.68;44.68;100298.00;5123585;27;19927;-45
2022/12/09 02:01:11;;;;;;;;;;;;;;;18.68;44.74;100285.03;5119638;28;19976;-44
2022/12/09 02:03:37;;;;;;;;;;;;;;;18.69;44.74;100283.09;5109994;28;19973;-44
2022/12/09 02:06:03;;;;;;;;;;;;;;;18.68;44.60;100286.97;5115572;27;19931;-44
2022/12/09 02:08:28;;;;;;;;;;;;;;;18.68;44.56;100289.72;5125492;28;20367;-43
2022/12/09 02:10:59;;;;;;;;;;;;;;;18.68;44.70;100281.44;5124608;28;20399;-44
2022/12/09 02:13:45;;;;;;;;;;;;;;;18.68;44.62;100287.78;5119519;28;19930;-45
2022/12/09 02:16:12;;;;;;;;;;;;;;;18.68;44.49;100287.78;5102141;28;20014;-46
2022/12/09 02:18:43;;;;;;;;;;;;;;;18.68;44.51;100289.72;5112166;28;19966;-43
2022/12/09 02:21:10;;;;;;;;;;;;;;;18.68;44.72;100278.69;5102254;28;19923;-44
2022/12/09 02:23:40;;;;;;;;;;;;;;;18.67;44.78;100271.53;5107581;28;20376;-44
2022/12/09 02:26:16;;;;;;;;;;;;;;;18.68;44.46;100273.16;5125195;28;19924;-47
2022/12/09 02:28:50;;;;;;;;;;;;;;;18.67;44.73;100274.28;5110389;28;19946;-44
2022/12/09 02:31:35;;;;;;;;;;;;;;;18.68;44.43;100265.72;5117907;28;20045;-43
2022/12/09 02:34:04;;;;;;;;;;;;;;;18.68;44.79;100273.16;5108704;28;19986;-44
2022/12/09 02:36:30;;;;;;;;;;;;;;;18.66;44.55;100267.97;5120685;28;19959;-44
2022/12/09 02:38:56;;;;;;;;;;;;;;;18.66;44.66;100264.38;5111439;28;19958;-45
2022/12/09 02:41:23;;;;;;;;;;;;;;;18.66;44.67;100265.19;5126082;28;19946;-45
2022/12/09 02:43:50;;;;;;;;;;;;;;;18.66;44.64;100267.13;5096810;28;19932;-45
2022/12/09 02:46:17;;;;;;;;;;;;;;;18.67;44.68;100266.84;5092897;28;20029;-44
2022/12/09 02:48:44;;;;;;;;;;;;;;;18.66;44.80;100261.63;5118584;28;19987;-44
2022/12/09 02:51:12;;;;;;;;;;;;;;;18.66;44.68;100259.69;5126948;28;20001;-44
2022/12/09 02:53:38;;;;;;;;;;;;;;;18.67;44.58;100266.00;5112599;27;19977;-44
2022/12/09 02:56:04;;;;;;;;;;;;;;;18.66;44.38;100256.94;5129137;28;19928;-43
2022/12/09 02:58:29;;;;;;;;;;;;;;;18.67;44.41;100261.31;5128206;28;19931;-44
2022/12/09 03:00:55;;;;;;;;;;;;;;;18.66;44.42;100248.66;5126619;28;19930;-45
2022/12/09 03:03:21;;;;;;;;;;;;;;;18.66;44.69;100250.59;5111281;28;19992;-44
2022/12/09 03:08:44;;;;;;;;;;;;;;;18.65;44.49;100246.16;5188901;27;19933;-41
2022/12/09 03:11:10;;;;;;;;;;;;;;;18.65;44.47;100247.00;5161454;27;20282;-42
2022/12/09 03:13:45;;;;;;;;;;;;;;;18.65;44.43;100252.53;5165930;27;20480;-42
2022/12/09 03:16:15;;;;;;;;;;;;;;;18.65;44.73;100244.25;5155999;27;19974;-43
2022/12/09 03:18:42;;;;;;;;;;;;;;;18.65;44.42;100246.16;5188916;27;20429;-41
2022/12/09 03:21:08;;;;;;;;;;;;;;;18.65;44.80;100248.94;5183344;27;19930;-43
2022/12/09 03:23:34;;;;;;;;;;;;;;;18.64;44.47;100242.59;5186517;27;20332;-41
2022/12/09 03:26:00;;;;;;;;;;;;;;;18.65;44.66;100246.16;5173133;27;20434;-41
2022/12/09 03:28:28;;;;;;;;;;;;;;;18.64;44.72;100244.53;5188665;27;19923;-42
2022/12/09 03:30:54;;;;;;;;;;;;;;;18.63;44.73;100235.44;5168484;27;19954;-43
2022/12/09 03:33:20;;;;;;;;;;;;;;;18.64;44.44;100236.25;5187318;27;19923;-42
2022/12/09 03:35:48;;;;;;;;;;;;;;;18.63;44.72;100229.94;5176689;27;19934;-41
2022/12/09 03:38:15;;;;;;;;;;;;;;;18.65;44.66;100240.66;5148829;27;19961;-41
2022/12/09 03:40:40;;;;;;;;;;;;;;;18.64;44.53;100233.50;5163764;27;19930;-41
2022/12/09 03:43:09;;;;;;;;;;;;;;;18.64;44.65;100233.50;5187896;27;19922;-41
2022/12/09 03:45:35;;;;;;;;;;;;;;;18.64;44.66;100231.56;5170127;27;19963;-43
2022/12/09 03:48:00;;;;;;;;;;;;;;;18.63;44.56;100232.69;5167495;27;19923;-41
2022/12/09 03:50:27;;;;;;;;;;;;;;;18.64;44.52;100234.31;5159669;27;19997;-41
2022/12/09 03:52:55;;;;;;;;;;;;;;;18.64;44.53;100236.25;5175053;27;20361;-43
2022/12/09 03:55:30;;;;;;;;;;;;;;;18.62;44.42;100225.53;5166930;27;19923;-42
2022/12/09 03:57:56;;;;;;;;;;;;;;;18.64;44.53;100225.22;5166693;27;19958;-42
2022/12/09 04:00:22;;;;;;;;;;;;;;;18.63;44.54;100227.16;5161159;27;19967;-41
2022/12/09 04:02:47;;;;;;;;;;;;;;;18.64;44.50;100222.47;5178308;27;19923;-41
2022/12/09 04:05:13;;;;;;;;;;;;;;;18.63;44.41;100226.34;5149612;27;20146;-42
2022/12/09 04:07:39;;;;;;;;;;;;;;;18.63;44.62;100226.34;5147050;27;20010;-43
2022/12/09 04:10:05;;;;;;;;;;;;;;;18.63;44.65;100235.44;5166372;27;19923;-43
2022/12/09 04:12:32;;;;;;;;;;;;;;;18.64;44.58;100220.53;5165540;27;20366;-41
2022/12/09 04:14:57;;;;;;;;;;;;;;;18.63;44.41;100224.41;5163055;27;19923;-43
2022/12/09 04:17:23;;;;;;;;;;;;;;;18.63;44.64;100224.41;5166415;27;19923;-42
2022/12/09 04:19:49;;;;;;;;;;;;;;;18.63;44.47;100224.41;5152923;27;19923;-42
2022/12/09 04:22:15;;;;;;;;;;;;;;;18.63;44.39;100221.66;5151136;27;19926;-43
2022/12/09 04:24:40;;;;;;;;;;;;;;;18.63;44.51;100220.84;5141192;27;19976;-43
2022/12/09 04:27:06;;;;;;;;;;;;;;;18.62;44.67;100220.00;5147308;27;20330;-41
2022/12/09 04:29:32;;;;;;;;;;;;;;;18.62;44.49;100216.44;5152866;27;19923;-44
2022/12/09 04:31:57;;;;;;;;;;;;;;;18.63;44.57;100216.13;5145218;27;19927;-43
2022/12/09 04:34:24;;;;;;;;;;;;;;;18.62;44.68;100214.50;5137601;27;19923;-42
2022/12/09 04:36:49;;;;;;;;;;;;;;;18.61;44.68;100218.38;5152748;27;19923;-42
2022/12/09 04:39:15;;;;;;;;;;;;;;;18.62;44.64;100213.69;5151565;27;20403;-41
2022/12/09 04:41:41;;;;;;;;;;;;;;;18.63;44.40;100218.06;5149943;27;19923;-40
2022/12/09 04:44:06;;;;;;;;;;;;;;;18.62;44.65;100214.50;5142919;27;19952;-42
2022/12/09 04:46:32;;;;;;;;;;;;;;;18.60;44.57;100211.19;5130556;27;19928;-41
2022/12/09 04:48:58;;;;;;;;;;;;;;;18.61;44.63;100207.34;5132791;27;20425;-41
2022/12/09 04:51:24;;;;;;;;;;;;;;;18.62;44.62;100208.16;5151043;27;19927;-43
2022/12/09 04:53:49;;;;;;;;;;;;;;;18.62;44.64;100211.75;5148640;27;19923;-41
2022/12/09 04:56:17;;;;;;;;;;;;;;;18.61;44.72;100212.88;5144442;27;19934;-42
2022/12/09 04:58:43;;;;;;;;;;;;;;;18.62;44.74;100206.22;5151385;27;19923;-41
2022/12/09 05:01:10;;;;;;;;;;;;;;;18.62;44.62;100203.47;5144904;27;19976;-42
2022/12/09 05:03:36;;;;;;;;;;;;;;;18.61;44.40;100204.59;5113308;27;20439;-41
2022/12/09 05:06:03;;;;;;;;;;;;;;;18.61;44.35;100200.97;5134491;27;20354;-41
2022/12/09 05:08:29;;;;;;;;;;;;;;;18.60;44.47;100210.38;5150747;27;19931;-42
2022/12/09 05:10:57;;;;;;;;;;;;;;;18.62;44.63;100208.16;5150799;27;19932;-41
2022/12/09 05:13:25;;;;;;;;;;;;;;;18.60;44.56;100200.16;5149778;27;20329;-42
2022/12/09 05:15:52;;;;;;;;;;;;;;;18.61;44.67;100203.75;5133568;27;19927;-42
2022/12/09 05:18:17;;;;;;;;;;;;;;;18.62;44.33;100213.69;5150084;27;20335;-42
2022/12/09 05:20:43;;;;;;;;;;;;;;;18.61;44.38;100212.88;5140303;27;20379;-42
2022/12/09 05:23:09;;;;;;;;;;;;;;;18.61;44.42;100203.75;5146516;27;19927;-41
2022/12/09 05:25:35;;;;;;;;;;;;;;;18.60;44.60;100204.88;5141830;27;20406;-41
2022/12/09 05:28:01;;;;;;;;;;;;;;;18.60;44.65;100211.19;5151328;27;19930;-42
2022/12/09 05:30:26;;;;;;;;;;;;;;;18.60;44.58;100197.41;5148927;27;19930;-41
2022/12/09 05:32:52;;;;;;;;;;;;;;;18.60;44.63;100202.09;5149691;27;19923;-41
2022/12/09 05:35:18;;;;;;;;;;;;;;;18.60;44.61;100202.09;5134685;27;20182;-43
2022/12/09 05:37:44;;;;;;;;;;;;;;;18.59;44.64;100195.78;5150452;27;19942;-41
2022/12/09 05:40:10;;;;;;;;;;;;;;;18.59;44.36;100194.97;5150502;27;19930;-42
2022/12/09 05:42:36;;;;;;;;;;;;;;;18.59;44.58;100190.25;5131407;27;20050;-43
2022/12/09 05:45:07;;;;;;;;;;;;;;;18.59;44.44;100179.22;5150763;27;19923;-41
2022/12/09 05:47:33;;;;;;;;;;;;;;;18.60;44.40;100185.56;5140426;27;20423;-41
2022/12/09 05:49:59;;;;;;;;;;;;;;;18.58;44.60;100188.63;5146393;27;19927;-42
2022/12/09 05:52:33;;;;;;;;;;;;;;;18.59;44.43;100187.50;5143955;27;19962;-43
2022/12/09 05:54:59;;;;;;;;;;;;;;;18.59;44.35;100184.75;5138048;27;19956;-42
2022/12/09 05:57:24;;;;;;;;;;;;;;;18.60;44.42;100188.31;5142682;27;19927;-43
2022/12/09 05:59:50;;;;;;;;;;;;;;;18.59;44.33;100190.25;5137614;27;19943;-44
2022/12/09 06:02:16;;;;;;;;;;;;;;;18.59;44.51;100184.75;5146376;27;20046;-41
2022/12/09 06:04:42;;;;;;;;;;;;;;;18.58;44.38;100190.56;5140224;27;19935;-41
2022/12/09 06:07:08;;;;;;;;;;;;;;;18.60;44.37;100188.31;5136523;27;20140;-43
2022/12/09 06:09:34;;;;;;;;;;;;;;;18.59;44.44;100190.25;5138168;27;19934;-41
2022/12/09 06:12:00;;;;;;;;;;;;;;;18.59;44.48;100187.50;5146219;27;20226;-44
2022/12/09 06:14:26;;;;;;;;;;;;;;;18.58;44.33;100177.59;5140265;27;20363;-41
2022/12/09 06:16:52;;;;;;;;;;;;;;;18.58;44.62;100180.34;5137943;27;20374;-41
2022/12/09 06:19:18;;;;;;;;;;;;;;;18.71;44.32;100181.59;5123159;27;19973;-56
2022/12/09 06:21:44;;;;;;;;;;;;;;;18.72;44.94;100180.47;5131058;27;19927;-41
2022/12/09 06:24:10;;;;;;;;;;;;;;;18.66;45.28;100179.69;5133816;27;19927;-42
2022/12/09 06:26:35;;;;;;;;;;;;;;;18.66;45.32;100174.19;5134203;27;19927;-42
2022/12/09 06:29:01;;;;;;;;;;;;;;;18.65;44.99;100175.31;5143601;27;19930;-42
2022/12/09 06:31:27;;;;;;;;;;;;;;;18.65;45.08;100175.31;5133267;27;19927;-43
2022/12/09 06:33:53;;;;;;;;;;;;;;;18.64;45.30;100170.88;5133376;27;19931;-44
2022/12/09 06:36:22;;;;;;;;;;;;;;;18.65;45.19;100172.56;5140297;27;20464;-42
2022/12/09 06:38:48;;;;;;;;;;;;;;;18.66;44.90;100167.84;5122404;27;19931;-42
2022/12/09 06:41:14;;;;;;;;;;;;;;;18.68;44.97;100173.88;5133417;27;19933;-41
2022/12/09 06:43:40;;;;;;;;;;;;;;;18.68;44.86;100163.66;5136286;27;19966;-44
2022/12/09 06:46:10;;;;;;;;;;;;;;;18.68;45.03;100171.94;5130942;27;19938;-41
2022/12/09 06:48:36;;;;;;;;;;;;;;;18.67;42.93;100172.25;5129667;27;19928;-56
2022/12/09 06:51:02;;;;;;;;;;;;;;;18.40;43.31;100170.94;5141844;27;19965;-44
2022/12/09 06:53:28;;;;;;;;;;;;;;;18.55;42.93;100170.72;5136461;27;19923;-41
2022/12/09 06:55:54;;;;;;;;;;;;;;;18.65;44.28;100174.47;5136493;27;20007;-43
2022/12/09 06:58:19;;;;;;;;;;;;;;;18.67;44.10;100181.34;5131056;27;19931;-42
2022/12/09 07:00:45;;;;;;;;;;;;;;;18.68;43.06;100179.41;5129854;27;19950;-41
2022/12/09 07:03:11;;;;;;;;;;;;;;;18.69;44.35;100179.13;5130906;27;19968;-42
2022/12/09 07:05:38;;;;;;;;;;;;;;;18.70;44.30;100178.03;5130072;27;19923;-42
2022/12/09 07:08:04;;;;;;;;;;;;;;;18.71;44.27;100185.19;5121977;27;20373;-41
2022/12/09 07:10:30;;;;;;;;;;;;;;;18.71;44.14;100182.41;5136407;27;19927;-42
2022/12/09 07:12:56;;;;;;;;;;;;;;;18.72;43.99;100192.34;5129473;27;20004;-42
2022/12/09 07:15:22;;;;;;;;;;;;;;;18.72;44.32;100184.06;5132893;27;19935;-42
2022/12/09 07:17:48;;;;;;;;;;;;;;;18.22;40.26;100191.81;5134560;27;19927;-53
2022/12/09 07:20:16;;;;;;;;;;;;;;;17.91;40.85;100199.53;5131251;27;19968;-55
2022/12/09 07:22:42;;;;;;;;;;;;;;;18.16;41.17;100197.66;5128619;27;20349;-43
2022/12/09 07:25:07;;;;;;;;;;;;;;;18.43;42.91;100200.63;5137531;27;19927;-41
2022/12/09 07:27:34;;;;;;;;;;;;;;;18.55;43.11;100192.78;5136009;27;19923;-40
2022/12/09 07:30:00;;;;;;;;;;;;;;;18.35;40.32;100193.03;5123876;27;20332;-45
2022/12/09 07:32:26;;;;;;;;;;;;;;;18.55;42.60;100198.28;5135777;27;19988;-42
2022/12/09 07:34:52;;;;;;;;;;;;;;;18.64;42.78;100195.72;5134453;27;20272;-41
2022/12/09 07:37:18;;;;;;;;;;;;;;;18.64;41.45;100194.88;5130300;27;20337;-42
2022/12/09 07:39:44;;;;;;;;;;;;;;;18.71;42.52;100198.16;5133794;27;19927;-42
2022/12/09 07:42:10;;;;;;;;;;;;;;;18.74;42.60;100206.66;5135126;27;19970;-44
2022/12/09 07:44:36;;;;;;;;;;;;;;;18.73;42.99;100199.47;5134673;27;19930;-42
2022/12/09 07:47:02;;;;;;;;;;;;;;;18.74;42.59;100203.09;5144935;27;19923;-42
2022/12/09 07:49:28;;;;;;;;;;;;;;;18.72;43.14;100203.38;5131294;27;19930;-44
2022/12/09 07:51:54;;;;;;;;;;;;;;;18.73;42.73;100207.75;5125078;27;19931;-43
2022/12/09 07:54:20;;;;;;;;;;;;;;;18.75;42.12;100201.97;5139613;27;19943;-45
2022/12/09 07:56:46;;;;;;;;;;;;;;;18.75;41.39;100204.72;5141108;27;19990;-43
2022/12/09 07:59:12;;;;;;;;;;;;;;;18.75;41.70;100205.53;5138920;27;19927;-44
2022/12/09 08:01:38;;;;;;;;;;;;;;;18.76;41.81;100206.34;5116304;27;19938;-44
2022/12/09 08:04:05;;;;;;;;;;;;;;;18.77;42.13;100216.28;5131524;27;19931;-42
2022/12/09 08:06:31;;;;;;;;;;;;;;;18.75;41.43;100213.00;5139558;27;20013;-47
2022/12/09 08:08:58;;;;;;;;;;;;;;;18.76;41.43;100222.91;5134235;27;19996;-41
2022/12/09 08:11:25;;;;;;;;;;;;;;;18.76;42.98;100225.66;5118345;27;19933;-41
2022/12/09 08:13:52;;;;;;;;;;;;;;;18.76;41.60;100228.44;5134224;27;19927;-45
2022/12/09 08:16:18;;;;;;;;;;;;;;;18.75;41.78;100226.78;5137610;27;19923;-42
2022/12/09 08:18:44;;;;;;;;;;;;;;;18.76;41.83;100232.00;5136879;27;19941;-41
2022/12/09 08:21:13;;;;;;;;;;;;;;;18.76;42.65;100226.47;5136423;27;20427;-41
2022/12/09 08:23:39;;;;;;;;;;;;;;;18.77;43.03;100230.88;5120929;27;19927;-42
2022/12/09 08:26:05;;;;;;;;;;;;;;;18.78;42.63;100237.22;5121925;27;19935;-42
2022/12/09 08:28:31;;;;;;;;;;;;;;;18.78;43.22;100226.19;5139913;27;19931;-41
2022/12/09 08:30:57;;;;;;;;;;;;;;;18.78;42.60;100229.78;5138720;27;20295;-41
2022/12/09 08:33:23;;;;;;;;;;;;;;;18.80;43.32;100229.47;5138094;27;19927;-42
2022/12/09 08:35:49;;;;;;;;;;;;;;;18.80;42.76;100232.25;5139100;27;19927;-45
2022/12/09 08:38:15;;;;;;;;;;;;;;;18.80;42.72;100226.72;5128842;27;20344;-41
2022/12/09 08:40:41;;;;;;;;;;;;;;;18.49;40.01;100224.28;5130704;27;19931;-43
2022/12/09 08:43:07;;;;;;;;;;;;;;;18.68;40.35;100229.84;5131227;27;20367;-41
2022/12/09 08:45:35;;;;;;;;;;;;;;;18.75;41.53;100224.84;5112773;27;21513;-41
2022/12/09 08:48:01;;;;;;;;;;;;;;;18.78;41.53;100228.94;5130162;27;19931;-44
2022/12/09 08:50:27;;;;;;;;;;;;;;;18.80;41.57;100229.47;5135089;27;19934;-43
2022/12/09 08:52:53;;;;;;;;;;;;;;;18.79;42.03;100223.16;5133947;27;19931;-43
2022/12/09 08:55:19;;;;;;;;;;;;;;;18.80;42.30;100224.78;5131740;27;19939;-43
2022/12/09 08:57:44;;;;;;;;;;;;;;;18.82;41.94;100226.41;5136652;27;19935;-41
2022/12/09 09:00:10;;;;;;;;;;;;;;;18.82;41.68;100226.41;5132937;27;20434;-41
2022/12/09 09:02:37;;;;;;;;;;;;;;;18.74;41.07;100220.47;5128633;27;20379;-43
2022/12/09 09:05:03;;;;;;;;;;;;;;;18.80;40.96;100223.97;5129501;27;20042;-43
2022/12/09 09:07:30;;;;;;;;;;;;;;;18.78;40.91;100220.66;5121813;27;20030;-43
2022/12/09 09:09:56;;;;;;;;;;;;;;;18.80;42.03;100224.78;5132781;27;19927;-45
2022/12/09 09:12:21;;;;;;;;;;;;;;;18.79;41.37;100223.16;5126829;27;20021;-45
2022/12/09 09:14:47;;;;;;;;;;;;;;;18.82;42.25;100218.97;5126451;27;20022;-46
2022/12/09 09:17:13;;;;;;;;;;;;;;;18.81;41.30;100225.59;5127677;27;19958;-46
2022/12/09 09:19:39;;;;;;;;;;;;;;;18.83;41.04;100222.56;5127254;27;20465;-45
2022/12/09 09:22:05;;;;;;;;;;;;;;;18.83;42.17;100228.09;5132022;27;19938;-42
2022/12/09 09:24:32;;;;;;;;;;;;;;;18.82;41.77;100227.22;5132452;27;19927;-46
2022/12/09 09:26:57;;;;;;;;;;;;;;;18.82;41.31;100234.69;5134183;27;20410;-46
2022/12/09 09:29:23;;;;;;;;;;;;;;;18.83;42.24;100236.34;5130551;27;19924;-45
2022/12/09 09:31:52;;;;;;;;;;;;;;;18.82;41.55;100243.78;5131935;27;20578;-45
2022/12/09 09:34:19;;;;;;;;;;;;;;;18.80;41.49;100243.28;5122071;27;20029;-41
2022/12/09 09:36:45;;;;;;;;;;;;;;;18.77;41.11;100241.91;5120783;27;20166;-46
2022/12/09 09:39:11;;;;;;;;;;;;;;;18.80;41.03;100237.75;5123734;27;19947;-41
2022/12/09 09:41:41;;;;;;;;;;;;;;;18.81;41.43;100233.88;5110444;27;19957;-43
2022/12/09 09:44:10;;;;;;;;;;;;;;;18.66;37.93;100236.81;5131319;27;19941;-46
2022/12/09 09:46:37;;;;;;;;;;;;;;;18.61;39.15;100243.19;5136336;27;19975;-42
2022/12/09 09:49:04;;;;;;;;;;;;;;;18.72;40.14;100236.47;5132357;27;19930;-41
2022/12/09 09:51:30;;;;;;;;;;;;;;;18.77;40.85;100230.88;5114105;27;19931;-43
2022/12/09 09:53:56;;;;;;;;;;;;;;;18.80;41.06;100232.25;5132685;27;19994;-42
2022/12/09 09:56:34;;;;;;;;;;;;;;;18.85;41.01;100236.88;5134298;27;19934;-41
2022/12/09 10:01:59;;;;;;;;;;;;;;;18.86;41.25;100227.47;5156285;27;19926;-42
2022/12/09 10:04:29;;;;;;;;;;;;;;;18.86;41.25;100233.00;5103982;27;20031;-44
2022/12/09 10:06:58;;;;;;;;;;;;;;;18.87;42.36;100231.88;5117820;27;19966;-43
2022/12/09 10:09:41;;;;;;;;;;;;;;;18.86;41.87;100233.00;5116835;27;19992;-43
2022/12/09 10:12:15;;;;;;;;;;;;;;;18.86;42.08;100225.53;5110745;27;20364;-41
2022/12/09 10:15:01;;;;;;;;;;;;;;;18.85;41.28;100220.31;5115499;27;19931;-41
2022/12/09 10:17:31;;;;;;;;;;;;;;;18.86;40.96;100228.28;5110593;27;19928;-41
2022/12/09 10:20:02;;;;;;;;;;;;;;;18.84;41.34;100219.50;5118946;27;20402;-43
2022/12/09 10:22:28;;;;;;;;;;;;;;;18.85;41.03;100218.38;5093843;28;20034;-41
2022/12/09 10:24:55;;;;;;;;;;;;;;;18.84;40.80;100222.25;5109035;27;20558;-42
2022/12/09 10:27:31;;;;;;;;;;;;;;;18.85;41.30;100212.03;5110243;27;20478;-42
2022/12/09 10:29:58;;;;;;;;;;;;;;;18.86;40.91;100216.44;5115062;27;20427;-44
2022/12/09 10:32:25;;;;;;;;;;;;;;;18.83;40.98;100212.34;5110467;27;20387;-42
2022/12/09 10:34:51;;;;;;;;;;;;;;;18.80;40.53;100212.94;5114019;27;19927;-43
2022/12/09 10:37:21;;;;;;;;;;;;;;;18.79;40.61;100212.13;5109195;27;19943;-43
2022/12/09 10:39:47;;;;;;;;;;;;;;;18.79;40.10;100206.59;5106755;27;20010;-41
2022/12/09 10:45:04;;;;;;;;;;;;;;;18.80;40.62;100207.41;5094384;28;19932;-40
2022/12/09 10:47:30;;;;;;;;;;;;;;;18.84;41.38;100205.72;5100891;27;19931;-41
2022/12/09 10:49:58;;;;;;;;;;;;;;;18.84;40.97;100208.47;5109612;27;20090;-41
2022/12/09 10:52:26;;;;;;;;;;;;;;;18.86;40.97;100208.16;5109465;28;20304;-43
2022/12/09 10:54:51;;;;;;;;;;;;;;;18.88;41.03;100201.25;5088761;28;20565;-43
2022/12/09 11:00:12;;;;;;;;;;;;;;;18.87;40.84;100198.75;5149334;27;20306;-40
2022/12/09 11:02:38;;;;;;;;;;;;;;;18.89;41.28;100199.28;5109522;27;19924;-44
2022/12/09 11:05:22;;;;;;;;;;;;;;;18.88;41.38;100195.72;5108681;27;20345;-42
2022/12/09 11:07:49;;;;;;;;;;;;;;;18.88;40.76;100194.91;5094504;28;19928;-41
2022/12/09 11:10:17;;;;;;;;;;;;;;;18.87;41.34;100190.47;5093499;28;19924;-42
2022/12/09 11:12:44;;;;;;;;;;;;;;;18.89;41.28;100193.78;5109101;27;20370;-44
2022/12/09 11:15:13;;;;;;;;;;;;;;;18.78;41.01;100195.84;5116593;28;19923;-45
2022/12/09 11:17:41;;;;;;;;;;;;;;;18.85;41.44;100193.53;5112274;27;19971;-42
2022/12/09 11:20:27;;;;;;;;;;;;;;;18.90;41.32;100189.91;5091871;28;19980;-43
2022/12/09 11:22:57;;;;;;;;;;;;;;;18.90;41.31;100192.66;5105753;28;19977;-43
2022/12/09 11:25:25;;;;;;;;;;;;;;;18.39;38.62;100183.03;5106233;27;20047;-45
2022/12/09 11:27:55;;;;;;;;;;;;;;;18.05;39.04;100195.00;5094599;27;19923;-48
2022/12/09 11:30:23;;;;;;;;;;;;;;;17.79;39.69;100188.91;5116348;27;19924;-51
2022/12/09 11:33:10;;;;;;;;;;;;;;;17.56;39.68;100187.69;5108469;27;19923;-48
2022/12/09 11:35:49;;;;;;;;;;;;;;;17.65;39.04;100198.91;5095358;27;20005;-48
2022/12/09 11:38:20;;;;;;;;;;;;;;;17.78;39.12;100189.19;5102840;27;19927;-42
2022/12/09 11:41:05;;;;;;;;;;;;;;;18.26;39.31;100194.78;5103290;27;20445;-42
2022/12/09 11:43:32;;;;;;;;;;;;;;;18.49;38.51;100195.91;5084403;27;20007;-41
2022/12/09 11:45:58;;;;;;;;;;;;;;;18.15;37.69;100183.03;5098092;27;19988;-41
2022/12/09 11:48:28;;;;;;;;;;;;;;;18.45;37.52;100181.06;5105037;27;20338;-44
2022/12/09 11:51:02;;;;;;;;;;;;;;;18.62;38.63;100181.41;5113138;27;19923;-41
2022/12/09 11:53:29;;;;;;;;;;;;;;;18.67;38.28;100173.06;5113027;27;19923;-42
2022/12/09 11:55:58;;;;;;;;;;;;;;;18.71;39.16;100173.34;5091131;28;20018;-42
2022/12/09 11:58:26;;;;;;;;;;;;;;;18.12;36.79;100175.34;5098367;28;19986;-53
2022/12/09 12:00:54;;;;;;;;;;;;;;;18.36;38.85;100177.31;5100736;27;20659;-42
2022/12/09 12:03:21;;;;;;;;;;;;;;;18.57;39.25;100167.69;5100521;27;19931;-42
2022/12/09 12:05:48;;;;;;;;;;;;;;;18.68;39.44;100169.19;5121893;27;19931;-41
2022/12/09 12:08:18;;;;;;;;;;;;;;;18.73;38.54;100165.56;5097341;28;20035;-46
2022/12/09 12:10:46;;;;;;;;;;;;;;;18.75;38.76;100164.16;5104665;27;19957;-44
2022/12/09 12:13:28;;;;;;;;;;;;;;;18.76;38.91;100163.03;5097103;28;20522;-42
2022/12/09 12:15:58;;;;;;;;;;;;;;;18.78;38.86;100162.72;5097647;28;20023;-42
2022/12/09 12:18:23;;;;;;;;;;;;;;;18.78;38.96;100166.34;5103112;28;19973;-45
2022/12/09 12:21:09;;;;;;;;;;;;;;;18.79;38.80;100169.91;5100998;28;19935;-42
2022/12/09 12:23:39;;;;;;;;;;;;;;;18.80;38.58;100160.50;5085134;28;20015;-41
2022/12/09 12:26:05;;;;;;;;;;;;;;;18.79;39.03;100164.41;5103162;28;20032;-42
2022/12/09 12:28:51;;;;;;;;;;;;;;;18.79;38.98;100162.47;5108869;28;20431;-43
2022/12/09 12:31:44;;;;;;;;;;;;;;;18.80;39.45;100158.56;5087185;28;19928;-43
2022/12/09 12:34:30;;;;;;;;;;;;;;;18.80;38.92;100155.81;5090477;28;20143;-44
2022/12/09 12:37:10;;;;;;;;;;;;;;;18.82;39.17;100151.94;5095943;28;19932;-44
2022/12/09 12:39:40;;;;;;;;;;;;;;;18.82;39.33;100160.22;5101044;28;20421;-41
2022/12/09 12:42:12;;;;;;;;;;;;;;;18.78;38.75;100148.94;5103351;28;19931;-42
2022/12/09 12:47:29;;;;;;;;;;;;;;;18.78;38.96;100147.03;5080629;28;19986;-45
2022/12/09 12:50:07;;;;;;;;;;;;;;;18.77;38.61;100139.03;5103771;28;19963;-44
2022/12/09 12:52:46;;;;;;;;;;;;;;;18.78;38.78;100137.91;5092564;28;20112;-42